createdAt,value
2022-10-11T00:00:18.311Z,14.68
2022-10-11T00:03:05.752Z,10.48
2022-10-11T00:05:33.452Z,10.45
2022-10-11T00:08:00.532Z,12.10
2022-10-11T00:10:27.489Z,11.18
2022-10-11T00:12:54.680Z,17.10
2022-10-11T00:15:23.218Z,10.68
2022-10-11T00:17:50.298Z,9.82
2022-10-11T00:20:17.794Z,15.25
2022-10-11T00:22:45.035Z,11.60
2022-10-11T00:25:13.047Z,16.25
2022-10-11T00:27:40.478Z,11.85
2022-10-11T00:30:09.076Z,17.52
2022-10-11T00:32:38.472Z,12.90
2022-10-11T00:35:07.203Z,11.95
2022-10-11T00:37:36.054Z,13.90
2022-10-11T00:40:06.321Z,15.13
2022-10-11T00:42:33.775Z,13.77
2022-10-11T00:45:31.876Z,11.15
2022-10-11T00:48:17.239Z,13.30
2022-10-11T00:50:44.244Z,11.40
2022-10-11T00:53:12.094Z,15.90
2022-10-11T00:56:13.250Z,10.50
2022-10-11T00:58:42.207Z,11.88
2022-10-11T01:01:09.479Z,13.88
2022-10-11T01:03:39.003Z,12.68
2022-10-11T01:06:06.982Z,12.80
2022-10-11T01:08:34.762Z,14.60
2022-10-11T01:11:02.653Z,12.52
2022-10-11T01:13:40.528Z,14.85
2022-10-11T01:16:32.082Z,13.98
2022-10-11T01:19:23.286Z,14.32
2022-10-11T01:22:16.688Z,13.40
2022-10-11T01:27:38.378Z,14.07
2022-10-11T01:30:19.206Z,13.60
2022-10-11T01:33:07.767Z,16.48
2022-10-11T01:35:58.814Z,19.42
2022-10-11T01:39:13.140Z,14.55
2022-10-11T01:41:47.193Z,11.15
2022-10-11T01:44:15.718Z,13.10
2022-10-11T01:46:42.908Z,16.38
2022-10-11T01:49:10.501Z,14.95
2022-10-11T01:51:47.550Z,14.98
2022-10-11T01:54:49.924Z,16.52
2022-10-11T01:57:54.827Z,14.20
2022-10-11T02:00:28.142Z,13.68
2022-10-11T02:03:03.999Z,16.08
2022-10-11T02:05:56.748Z,19.27
2022-10-11T02:08:49.025Z,14.15
2022-10-11T02:11:26.366Z,18.80
2022-10-11T02:14:13.445Z,14.68
2022-10-11T02:17:23.688Z,14.95
2022-10-11T02:19:54.629Z,15.70
2022-10-11T02:22:35.522Z,15.68
2022-10-11T02:25:07.589Z,18.92
2022-10-11T02:27:37.885Z,16.63
2022-10-11T02:30:07.612Z,15.38
2022-10-11T02:32:36.754Z,19.80
2022-10-11T02:35:04.661Z,15.55
2022-10-11T02:37:47.859Z,18.15
2022-10-11T02:43:10.845Z,16.45
2022-10-11T02:45:39.935Z,15.18
2022-10-11T02:48:09.472Z,17.25
2022-10-11T02:50:37.952Z,16.00
2022-10-11T02:53:05.571Z,18.83
2022-10-11T02:55:32.976Z,19.63
2022-10-11T02:57:59.904Z,15.82
2022-10-11T03:00:27.493Z,16.23
2022-10-11T03:02:54.441Z,17.38
2022-10-11T03:05:21.396Z,17.25
2022-10-11T03:07:48.520Z,18.65
2022-10-11T03:10:15.506Z,18.15
2022-10-11T03:12:42.491Z,19.42
2022-10-11T03:15:10.399Z,18.40
2022-10-11T03:17:37.656Z,22.27
2022-10-11T03:20:07.865Z,20.58
2022-10-11T03:22:35.426Z,22.40
2022-10-11T03:25:04.387Z,22.73
2022-10-11T03:27:32.924Z,20.80
2022-10-11T03:30:00.588Z,24.27
2022-10-11T03:32:28.267Z,22.17
2022-10-11T03:34:55.267Z,21.02
2022-10-11T03:37:22.671Z,18.20
2022-10-11T03:39:49.658Z,17.83
2022-10-11T03:42:16.984Z,22.80
2022-10-11T03:44:44.174Z,18.20
2022-10-11T03:47:11.140Z,20.88
2022-10-11T03:49:42.706Z,18.98
2022-10-11T03:52:11.589Z,23.27
2022-10-11T03:54:38.547Z,20.13
2022-10-11T03:57:05.587Z,22.17
2022-10-11T03:59:32.769Z,23.13
2022-10-11T04:01:59.810Z,21.42
2022-10-11T04:04:26.953Z,19.77
2022-10-11T04:06:54.083Z,21.40
2022-10-11T04:09:21.383Z,22.90
2022-10-11T04:11:48.360Z,24.45
2022-10-11T04:14:15.840Z,21.08
2022-10-11T04:16:42.964Z,24.73
2022-10-11T04:19:09.954Z,24.15
2022-10-11T04:21:37.149Z,20.10
2022-10-11T04:24:04.383Z,22.58
2022-10-11T04:26:31.403Z,20.20
2022-10-11T04:28:58.764Z,19.17
2022-10-11T04:31:25.893Z,19.02
2022-10-11T04:33:52.906Z,20.83
2022-10-11T04:36:20.119Z,18.08
2022-10-11T04:38:47.122Z,20.63
2022-10-11T04:41:15.347Z,19.48
2022-10-11T04:43:42.800Z,20.90
2022-10-11T04:46:11.080Z,16.92
2022-10-11T04:48:38.417Z,19.85
2022-10-11T04:51:05.771Z,19.00
2022-10-11T04:53:32.820Z,21.65
2022-10-11T04:56:05.939Z,20.45
2022-10-11T04:58:35.186Z,21.80
2022-10-11T05:01:02.132Z,17.42
2022-10-11T05:03:29.508Z,20.73
2022-10-11T05:05:56.974Z,20.60
2022-10-11T05:08:24.423Z,20.33
2022-10-11T05:11:10.490Z,21.23
2022-10-11T05:13:38.546Z,21.73
2022-10-11T05:16:10.633Z,16.98
2022-10-11T05:18:39.104Z,13.95
2022-10-11T05:21:16.597Z,15.88
2022-10-11T05:23:44.649Z,17.95
2022-10-11T05:26:11.675Z,16.52
2022-10-11T05:28:38.809Z,18.40
2022-10-11T05:31:08.964Z,17.92
2022-10-11T05:33:36.156Z,18.27
2022-10-11T05:36:04.335Z,15.63
2022-10-11T05:38:31.667Z,14.70
2022-10-11T05:41:03.716Z,14.50
2022-10-11T05:43:31.345Z,14.50
2022-10-11T05:45:58.862Z,12.82
2022-10-11T05:48:26.873Z,11.38
2022-10-11T05:50:59.345Z,15.25
2022-10-11T05:53:26.892Z,13.00
2022-10-11T05:55:53.876Z,11.60
2022-10-11T05:58:21.310Z,12.88
2022-10-11T06:00:48.286Z,12.88
2022-10-11T06:03:15.963Z,13.75
2022-10-11T06:05:43.246Z,11.70
2022-10-11T06:08:11.692Z,10.43
2022-10-11T06:10:38.914Z,10.52
2022-10-11T06:13:07.289Z,10.85
2022-10-11T06:15:34.893Z,10.45
2022-10-11T06:18:01.976Z,13.57
2022-10-11T06:20:29.237Z,12.10
2022-10-11T06:22:56.224Z,11.73
2022-10-11T06:25:23.224Z,13.50
2022-10-11T06:27:50.420Z,12.77
2022-10-11T06:30:18.209Z,14.73
2022-10-11T06:32:45.368Z,10.50
2022-10-11T06:35:12.301Z,11.52
2022-10-11T06:37:39.339Z,10.85
2022-10-11T06:40:07.188Z,11.07
2022-10-11T06:42:34.157Z,9.88
2022-10-11T06:45:01.137Z,8.38
2022-10-11T06:47:28.320Z,9.05
2022-10-11T06:49:55.350Z,10.82
2022-10-11T06:52:22.390Z,7.88
2022-10-11T06:54:49.586Z,7.22
2022-10-11T06:57:16.639Z,6.93
2022-10-11T06:59:43.583Z,5.25
2022-10-11T07:02:11.101Z,6.60
2022-10-11T07:04:38.070Z,7.25
2022-10-11T07:07:05.073Z,5.35
2022-10-11T07:09:34.054Z,7.00
2022-10-11T07:12:01.067Z,5.43
2022-10-11T07:14:28.142Z,7.00
2022-10-11T07:16:55.283Z,6.13
2022-10-11T07:19:22.234Z,4.72
2022-10-11T07:21:49.605Z,7.28
2022-10-11T07:24:16.852Z,4.93
2022-10-11T07:26:43.841Z,5.13
2022-10-11T07:29:11.368Z,5.05
2022-10-11T07:31:41.167Z,6.47
2022-10-11T07:34:08.528Z,2.60
2022-10-11T07:36:35.740Z,6.13
2022-10-11T07:39:05.596Z,3.78
2022-10-11T07:41:32.798Z,4.78
2022-10-11T07:44:01.036Z,4.30
2022-10-11T07:46:28.315Z,4.03
2022-10-11T07:48:55.314Z,4.75
2022-10-11T07:51:24.272Z,2.78
2022-10-11T07:53:54.214Z,3.28
2022-10-11T07:56:24.723Z,5.35
2022-10-11T07:59:05.853Z,4.05
2022-10-11T08:01:33.613Z,5.43
2022-10-11T08:04:00.766Z,2.22
2022-10-11T08:06:32.473Z,6.75
2022-10-11T08:09:01.693Z,3.90
2022-10-11T08:11:32.248Z,5.38
2022-10-11T08:14:00.177Z,6.70
2022-10-11T08:16:27.875Z,3.35
2022-10-11T08:18:57.173Z,3.38
2022-10-11T08:21:26.719Z,3.78
2022-10-11T08:23:54.691Z,4.90
2022-10-11T08:26:21.999Z,3.50
2022-10-11T08:28:49.128Z,2.50
2022-10-11T08:31:16.859Z,3.08
2022-10-11T08:33:44.434Z,3.83
2022-10-11T08:36:12.475Z,2.50
2022-10-11T08:38:39.954Z,2.72
2022-10-11T08:41:31.745Z,5.30
2022-10-11T08:44:15.481Z,2.60
2022-10-11T08:46:47.000Z,5.60
2022-10-11T08:49:15.672Z,6.05
2022-10-11T08:51:47.540Z,5.22
2022-10-11T08:54:39.161Z,3.88
2022-10-11T08:57:07.990Z,3.05
2022-10-11T08:59:49.444Z,4.15
2022-10-11T09:02:55.673Z,4.88
2022-10-11T09:05:25.093Z,4.45
2022-10-11T09:08:08.408Z,2.60
2022-10-11T09:10:39.156Z,2.92
2022-10-11T09:13:31.592Z,7.55
2022-10-11T09:16:18.999Z,4.63
2022-10-11T09:19:23.270Z,3.05
2022-10-11T09:21:50.287Z,5.60
2022-10-11T09:24:30.537Z,4.43
2022-10-11T09:27:01.443Z,3.33
2022-10-11T09:29:43.805Z,4.15
2022-10-11T09:32:16.809Z,2.38
2022-10-11T09:34:44.201Z,5.75
2022-10-11T09:37:40.906Z,3.30
2022-10-11T09:40:20.546Z,4.90
2022-10-11T09:42:47.511Z,3.15
2022-10-11T09:45:21.001Z,5.65
2022-10-11T09:47:50.762Z,1.85
2022-10-11T09:50:26.147Z,5.30
2022-10-11T09:53:02.305Z,1.67
2022-10-11T09:55:54.048Z,5.95
2022-10-11T09:58:35.378Z,3.92
2022-10-11T10:01:22.378Z,3.22
2022-10-11T10:04:06.662Z,2.55
2022-10-11T10:06:34.023Z,3.33
2022-10-11T10:09:30.971Z,1.88
2022-10-11T10:11:58.368Z,5.85
2022-10-11T10:14:30.173Z,3.15
2022-10-11T10:17:15.448Z,7.43
2022-10-11T10:19:56.300Z,4.18
2022-10-11T10:22:35.300Z,3.60
2022-10-11T10:25:08.000Z,2.78
2022-10-11T10:27:35.446Z,3.15
2022-10-11T10:30:08.398Z,3.53
2022-10-11T10:32:54.460Z,3.47
2022-10-11T10:35:36.782Z,3.33
2022-10-11T10:38:26.372Z,1.80
2022-10-11T10:41:01.374Z,0.95
2022-10-11T10:43:33.887Z,1.50
2022-10-11T10:52:03.044Z,2.58
2022-10-11T10:54:30.040Z,4.45
2022-10-11T10:57:01.894Z,7.18
2022-10-11T10:59:32.741Z,2.95
2022-10-11T11:02:39.699Z,4.75
2022-10-11T11:05:32.134Z,4.63
2022-10-11T11:08:14.473Z,2.20
2022-10-11T11:11:08.717Z,3.58
2022-10-11T11:14:21.645Z,5.45
2022-10-11T11:17:09.023Z,6.05
2022-10-11T11:19:43.938Z,8.70
2022-10-11T11:22:38.343Z,4.95
2022-10-11T11:25:24.288Z,3.38
2022-10-11T11:28:16.648Z,5.38
2022-10-11T11:31:07.058Z,3.73
2022-10-11T11:33:44.070Z,4.03
2022-10-11T11:36:21.514Z,1.92
2022-10-11T11:38:51.497Z,2.00
2022-10-11T11:41:27.027Z,7.22
2022-10-11T11:44:16.838Z,2.80
2022-10-11T11:47:11.277Z,4.10
2022-10-11T11:52:28.451Z,2.40
2022-10-11T11:55:31.957Z,4.72
2022-10-11T11:58:30.605Z,3.83
2022-10-11T12:01:01.670Z,2.28
2022-10-11T12:03:36.871Z,10.25
2022-10-11T12:06:13.966Z,1.40
2022-10-11T12:08:48.052Z,7.57
2022-10-11T12:11:35.252Z,2.53
2022-10-11T12:14:38.241Z,4.40
2022-10-11T12:17:09.184Z,3.97
2022-10-11T12:19:38.577Z,1.58
2022-10-11T12:22:26.570Z,4.35
2022-10-11T12:25:22.579Z,4.47
2022-10-11T12:27:56.065Z,5.22
2022-10-11T12:30:47.890Z,4.72
2022-10-11T12:33:16.581Z,5.25
2022-10-11T12:35:52.987Z,4.20
2022-10-11T12:38:22.219Z,4.75
2022-10-11T12:40:54.385Z,2.30
2022-10-11T12:43:29.215Z,4.18
2022-10-11T12:45:56.593Z,7.20
2022-10-11T12:49:01.944Z,7.18
2022-10-11T12:51:31.935Z,3.97
2022-10-11T12:54:25.572Z,2.92
2022-10-11T12:57:19.067Z,2.55
2022-10-11T12:59:46.753Z,2.00
2022-10-11T13:02:42.672Z,3.08
2022-10-11T13:05:47.743Z,2.58
2022-10-11T13:08:26.968Z,2.67
2022-10-11T13:10:57.234Z,6.53
2022-10-11T13:13:32.047Z,6.35
2022-10-11T13:16:07.041Z,4.47
2022-10-11T13:18:34.759Z,3.90
2022-10-11T13:21:01.800Z,1.65
2022-10-11T13:23:37.821Z,1.75
2022-10-11T13:26:05.172Z,5.80
2022-10-11T13:28:36.355Z,6.13
2022-10-11T13:31:05.667Z,6.60
2022-10-11T13:33:37.431Z,1.60
2022-10-11T13:36:08.854Z,3.90
2022-10-11T13:38:37.517Z,2.75
2022-10-11T13:41:07.746Z,2.20
2022-10-11T13:43:36.359Z,2.33
2022-10-11T13:46:05.360Z,6.43
2022-10-11T13:48:40.303Z,2.70
2022-10-11T13:51:27.425Z,2.78
2022-10-11T13:54:02.090Z,5.60
2022-10-11T13:56:57.509Z,3.78
2022-10-11T13:59:28.200Z,3.90
2022-10-11T14:02:00.852Z,3.40
2022-10-11T14:04:29.895Z,4.93
2022-10-11T14:07:02.424Z,2.42
2022-10-11T14:09:32.543Z,3.90
2022-10-11T14:12:33.971Z,3.20
2022-10-11T14:15:03.091Z,3.33
2022-10-11T14:17:40.908Z,3.53
2022-10-11T14:20:14.090Z,7.82
2022-10-11T14:22:41.238Z,7.32
2022-10-11T14:25:08.468Z,4.80
2022-10-11T14:27:36.612Z,3.88
2022-10-11T14:32:59.557Z,4.25
2022-10-11T14:35:30.702Z,3.08
2022-10-11T14:37:58.325Z,4.57
2022-10-11T14:40:28.519Z,7.60
2022-10-11T14:42:55.728Z,4.43
2022-10-11T14:45:23.320Z,7.18
2022-10-11T14:47:50.699Z,7.10
2022-10-11T14:50:42.656Z,5.30
2022-10-11T14:53:11.636Z,8.20
2022-10-11T14:55:41.161Z,6.90
2022-10-11T14:58:09.809Z,7.40
2022-10-11T15:00:37.206Z,7.97
2022-10-11T15:03:07.402Z,6.88
2022-10-11T15:05:35.467Z,8.50
2022-10-11T15:08:04.972Z,4.65
2022-10-11T15:10:38.416Z,7.28
2022-10-11T15:13:07.210Z,4.63
2022-10-11T15:15:36.842Z,5.15
2022-10-11T15:18:06.334Z,6.45
2022-10-11T15:20:37.149Z,8.45
2022-10-11T15:23:05.020Z,6.80
2022-10-11T15:25:32.413Z,6.80
2022-10-11T15:27:59.705Z,7.00
2022-10-11T15:30:41.097Z,4.45
2022-10-11T15:33:09.136Z,4.55
2022-10-11T15:35:36.337Z,9.13
2022-10-11T15:38:04.578Z,11.90
2022-10-11T15:40:35.775Z,15.15
2022-10-11T15:43:03.130Z,12.98
2022-10-11T15:45:30.969Z,14.07
2022-10-11T15:47:58.241Z,9.10
2022-10-11T15:50:37.437Z,4.80
2022-10-11T15:53:17.173Z,6.97
2022-10-11T15:55:52.386Z,5.55
2022-10-11T15:58:37.579Z,4.35
2022-10-11T16:01:09.010Z,6.32
2022-10-11T16:03:36.602Z,5.50
2022-10-11T16:06:05.536Z,4.30
2022-10-11T16:08:34.498Z,28.90
2022-10-11T16:11:02.397Z,35.42
2022-10-11T16:13:30.012Z,19.80
2022-10-11T16:15:57.604Z,12.30
2022-10-11T16:18:24.958Z,18.15
2022-10-11T16:20:52.556Z,18.13
2022-10-11T16:23:22.235Z,18.15
2022-10-11T16:26:00.740Z,30.33
2022-10-11T16:28:28.518Z,39.80
2022-10-11T16:30:56.056Z,30.98
2022-10-11T16:33:23.893Z,29.42
2022-10-11T16:35:51.153Z,26.77
2022-10-11T16:38:18.823Z,19.45
2022-10-11T16:40:45.779Z,12.48
2022-10-11T16:43:13.251Z,13.63
2022-10-11T16:45:40.279Z,13.48
2022-10-11T16:48:07.340Z,12.82
2022-10-11T16:50:39.137Z,10.82
2022-10-11T16:53:06.624Z,14.98
2022-10-11T16:55:33.844Z,15.55
2022-10-11T16:58:00.878Z,20.95
2022-10-11T17:00:28.433Z,71.00
2022-10-11T17:02:55.403Z,98.55
2022-10-11T17:05:22.879Z,144.48
2022-10-11T17:07:51.096Z,85.03
2022-10-11T17:10:18.429Z,35.95
2022-10-11T17:12:50.232Z,30.75
2022-10-11T17:15:17.917Z,40.60
2022-10-11T17:17:44.931Z,37.13
2022-10-11T17:20:12.361Z,19.88
2022-10-11T17:22:39.305Z,20.58
2022-10-11T17:25:09.923Z,23.00
2022-10-11T17:27:38.553Z,17.52
2022-10-11T17:30:06.760Z,18.35
2022-10-11T17:32:33.760Z,19.63
2022-10-11T17:35:02.501Z,16.33
2022-10-11T17:37:29.722Z,20.65
2022-10-11T17:39:56.730Z,16.05
2022-10-11T17:42:23.726Z,13.95
2022-10-11T17:44:50.925Z,13.60
2022-10-11T17:47:17.956Z,12.63
2022-10-11T17:49:45.799Z,14.68
2022-10-11T17:52:12.790Z,14.57
2022-10-11T17:54:39.999Z,14.52
2022-10-11T17:57:07.294Z,22.27
2022-10-11T17:59:35.505Z,27.08
2022-10-11T18:02:02.788Z,25.20
2022-10-11T18:04:30.554Z,18.73
2022-10-11T18:06:59.397Z,24.80
2022-10-11T18:09:28.583Z,26.63
2022-10-11T18:11:55.553Z,34.72
2022-10-11T18:14:23.001Z,43.22
2022-10-11T18:16:51.075Z,46.33
2022-10-11T18:19:18.157Z,41.70
2022-10-11T18:21:45.353Z,39.17
2022-10-11T18:24:15.755Z,32.20
2022-10-11T18:26:46.967Z,22.02
2022-10-11T18:29:14.816Z,24.65
2022-10-11T18:31:42.009Z,24.30
2022-10-11T18:34:12.958Z,34.83
2022-10-11T18:36:40.104Z,38.47
2022-10-11T18:39:13.486Z,40.45
2022-10-11T18:41:44.581Z,36.78
2022-10-11T18:44:14.423Z,35.67
2022-10-11T18:46:42.069Z,32.72
2022-10-11T18:49:11.734Z,32.28
2022-10-11T18:51:41.453Z,40.60
2022-10-11T18:54:12.926Z,49.30
2022-10-11T18:56:42.823Z,49.80
2022-10-11T18:59:11.589Z,38.55
2022-10-11T19:01:41.541Z,47.05
2022-10-11T19:04:11.334Z,35.42
2022-10-11T19:06:41.609Z,30.85
2022-10-11T19:09:17.931Z,65.93
2022-10-11T19:11:45.036Z,182.93
2022-10-11T19:14:15.140Z,118.03
2022-10-11T19:16:49.747Z,54.35
2022-10-11T19:19:19.402Z,48.53
2022-10-11T19:21:48.794Z,37.70
2022-10-11T19:24:17.919Z,26.83
2022-10-11T19:26:45.805Z,25.58
2022-10-11T19:29:16.625Z,24.17
2022-10-11T19:31:46.972Z,21.20
2022-10-11T19:34:14.481Z,19.40
2022-10-11T19:36:42.828Z,26.17
2022-10-11T19:39:14.572Z,20.67
2022-10-11T19:41:42.611Z,23.40
2022-10-11T19:44:11.023Z,26.85
2022-10-11T19:46:50.941Z,37.55
2022-10-11T19:49:21.574Z,28.40
2022-10-11T19:51:48.673Z,29.20
2022-10-11T19:54:16.969Z,34.05
2022-10-11T19:56:44.777Z,40.35
2022-10-11T19:59:12.918Z,32.22
2022-10-11T20:01:41.291Z,29.25
2022-10-11T20:04:27.510Z,25.45
2022-10-11T20:06:58.895Z,22.85
2022-10-11T20:09:30.540Z,28.52
2022-10-11T20:11:58.224Z,26.10
2022-10-11T20:14:25.968Z,25.83
2022-10-11T20:16:53.207Z,23.08
2022-10-11T20:19:25.014Z,26.88
2022-10-11T20:21:56.429Z,20.27
2022-10-11T20:24:23.691Z,25.83
2022-10-11T20:26:50.698Z,26.83
2022-10-11T20:29:18.120Z,28.48
2022-10-11T20:31:45.147Z,27.23
2022-10-11T20:34:13.297Z,32.42
2022-10-11T20:36:40.280Z,32.50
2022-10-11T20:39:07.808Z,31.50
2022-10-11T20:41:39.684Z,28.38
2022-10-11T20:44:07.801Z,30.98
2022-10-11T20:46:37.990Z,21.45
2022-10-11T20:49:07.805Z,22.80
2022-10-11T20:51:36.929Z,23.80
2022-10-11T20:54:04.776Z,28.92
2022-10-11T20:56:33.736Z,28.73
2022-10-11T20:59:01.702Z,30.35
2022-10-11T21:01:32.303Z,26.67
2022-10-11T21:04:01.195Z,23.13
2022-10-11T21:06:29.969Z,19.52
2022-10-11T21:08:59.137Z,18.90
2022-10-11T21:11:28.190Z,22.75
2022-10-11T21:13:59.870Z,21.70
2022-10-11T21:16:27.827Z,21.17
2022-10-11T21:18:57.040Z,19.85
2022-10-11T21:21:24.657Z,19.48
2022-10-11T21:23:56.643Z,19.13
2022-10-11T21:26:23.725Z,22.15
2022-10-11T21:28:51.215Z,22.25
2022-10-11T21:31:19.852Z,18.02
2022-10-11T21:33:47.353Z,16.67
2022-10-11T21:36:21.052Z,14.00
2022-10-11T21:38:49.183Z,15.63
2022-10-11T21:41:19.105Z,16.17
2022-10-11T21:43:47.225Z,14.60
2022-10-11T21:46:18.645Z,15.20
2022-10-11T21:48:46.743Z,18.98
2022-10-11T21:51:29.522Z,22.83
2022-10-11T21:54:00.192Z,28.23
2022-10-11T21:56:28.078Z,25.38
2022-10-11T21:58:55.223Z,21.80
2022-10-11T22:01:23.234Z,24.05
2022-10-11T22:03:52.293Z,23.55
2022-10-11T22:06:19.938Z,25.48
2022-10-11T22:08:48.005Z,24.85
2022-10-11T22:11:14.973Z,24.08
2022-10-11T22:13:42.635Z,25.80
2022-10-11T22:16:12.821Z,26.25
2022-10-11T22:18:41.342Z,21.23
2022-10-11T22:21:13.731Z,26.00
2022-10-11T22:23:46.261Z,26.02
2022-10-11T22:26:25.301Z,26.80
2022-10-11T22:28:53.509Z,24.52
2022-10-11T22:31:22.339Z,22.58
2022-10-11T22:33:53.349Z,23.65
2022-10-11T22:36:20.453Z,23.85
2022-10-11T22:38:47.624Z,28.35
2022-10-11T22:41:14.734Z,21.15
2022-10-11T22:43:41.772Z,30.40
2022-10-11T22:46:09.603Z,24.08
2022-10-11T22:48:36.816Z,27.05
2022-10-11T22:51:04.200Z,24.55
2022-10-11T22:53:31.968Z,34.15
2022-10-11T22:55:59.367Z,24.10
2022-10-11T22:58:26.417Z,29.85
2022-10-11T23:00:53.635Z,29.77
2022-10-11T23:03:21.390Z,28.38
2022-10-11T23:05:58.065Z,29.65
2022-10-11T23:08:25.844Z,23.35
2022-10-11T23:10:53.211Z,20.75
2022-10-11T23:13:20.259Z,24.40
2022-10-11T23:15:47.819Z,28.88
2022-10-11T23:18:18.061Z,23.83
2022-10-11T23:20:45.082Z,27.60
2022-10-11T23:23:12.308Z,23.67
2022-10-11T23:25:39.311Z,29.73
2022-10-11T23:28:06.271Z,26.08
2022-10-11T23:30:35.224Z,27.35
2022-10-11T23:33:02.174Z,28.65
2022-10-11T23:35:29.188Z,25.40
2022-10-11T23:37:56.627Z,31.45
2022-10-11T23:40:23.558Z,22.45
2022-10-11T23:42:50.532Z,23.38
2022-10-11T23:45:17.708Z,31.67
2022-10-11T23:47:44.641Z,26.05
2022-10-11T23:50:11.627Z,26.23
2022-10-11T23:52:38.803Z,30.38
2022-10-11T23:55:06.008Z,30.80
2022-10-11T23:57:32.966Z,32.35
